Time;durP1;ratioP1;P1;durP2;ratioP2;P2;SDS_P1;SDS_P2;PMS_P1;PMS_P2;Temp;Humidity;BMP_temperature;BMP_pressure;BME280_temperature;BME280_humidity;BME280_pressure;Samples;Min_cycle;Max_cycle;Signal;HPM_P1;HPM_P2
2022/10/17 00:00:27;;;;;;;;;;;13.70;99.90;;;;;;5064838;28;19908;-41
2022/10/17 00:02:56;;;;;;;;;;;13.70;99.90;;;;;;5072731;28;19904;-43
2022/10/17 00:05:22;;;;;;;;;;;13.60;99.90;;;;;;5077802;28;19926;-42
2022/10/17 00:07:47;;;;;;;;;;;13.60;99.90;;;;;;5092948;28;20530;-42
2022/10/17 00:10:13;;;;;;;;;;;13.60;99.90;;;;;;5093751;28;20007;-42
2022/10/17 00:12:38;;;;;;;;;;;13.50;99.90;;;;;;5093892;28;19951;-42
2022/10/17 00:15:06;;;;;;;;;;;13.60;99.90;;;;;;5093948;28;19957;-41
2022/10/17 00:17:31;;;;;;;;;;;13.50;99.90;;;;;;5093894;28;19911;-41
2022/10/17 00:19:59;;;;;;;;;;;13.50;99.90;;;;;;5073769;28;19997;-41
2022/10/17 00:22:25;;;;;;;;;;;13.50;99.90;;;;;;5073136;28;19908;-41
2022/10/17 00:24:51;;;;;;;;;;;13.50;99.90;;;;;;5073114;28;19908;-41
2022/10/17 00:27:16;;;;;;;;;;;13.40;99.90;;;;;;5073471;28;19904;-40
2022/10/17 00:29:42;;;;;;;;;;;13.40;99.90;;;;;;5073205;28;19904;-41
2022/10/17 00:32:07;;;;;;;;;;;13.40;99.90;;;;;;5066443;28;19911;-42
2022/10/17 00:34:33;;;;;;;;;;;13.40;99.90;;;;;;5081324;28;19904;-43
2022/10/17 00:36:58;;;;;;;;;;;13.40;99.90;;;;;;5078123;28;20246;-42
2022/10/17 00:39:23;;;;;;;;;;;13.40;99.90;;;;;;5092569;28;19931;-41
2022/10/17 00:41:49;;;;;;;;;;;13.40;99.90;;;;;;5092891;28;20346;-44
2022/10/17 00:44:29;;;;;;;;;;;13.30;99.90;;;;;;5082484;28;20003;-41
2022/10/17 00:47:06;;;;;;;;;;;13.30;99.90;;;;;;5084488;28;19925;-41
2022/10/17 00:49:32;;;;;;;;;;;13.30;99.90;;;;;;5090449;28;19908;-41
2022/10/17 00:52:02;;;;;;;;;;;13.30;99.90;;;;;;5083876;28;20369;-43
2022/10/17 00:54:32;;;;;;;;;;;13.30;99.90;;;;;;5092612;28;19911;-41
2022/10/17 00:56:58;;;;;;;;;;;13.30;99.90;;;;;;5089553;28;19922;-42
2022/10/17 00:59:23;;;;;;;;;;;13.30;99.90;;;;;;5084162;28;20317;-41
2022/10/17 01:01:55;;;;;;;;;;;13.20;99.90;;;;;;5092006;28;19904;-40
2022/10/17 01:04:21;;;;;;;;;;;13.20;99.90;;;;;;5081917;28;20000;-40
2022/10/17 01:06:46;;;;;;;;;;;13.20;99.90;;;;;;5084189;28;19978;-41
2022/10/17 01:09:11;;;;;;;;;;;13.20;99.90;;;;;;5092067;28;20385;-41
2022/10/17 01:11:48;;;;;;;;;;;13.20;99.90;;;;;;5091836;28;19904;-40
2022/10/17 01:14:21;;;;;;;;;;;13.20;99.90;;;;;;5091315;28;20058;-40
2022/10/17 01:16:51;;;;;;;;;;;13.20;99.90;;;;;;5082809;28;20366;-41
2022/10/17 01:19:28;;;;;;;;;;;13.20;99.90;;;;;;5082660;28;19916;-41
2022/10/17 01:21:57;;;;;;;;;;;13.20;99.90;;;;;;5092133;28;20357;-40
2022/10/17 01:24:35;;;;;;;;;;;13.20;99.90;;;;;;5092547;28;19911;-41
2022/10/17 01:27:10;;;;;;;;;;;13.20;99.90;;;;;;5092467;28;20049;-40
2022/10/17 01:29:46;;;;;;;;;;;13.10;99.90;;;;;;5090562;28;19904;-42
2022/10/17 01:32:33;;;;;;;;;;;13.10;99.90;;;;;;5083334;28;20037;-41
2022/10/17 01:35:07;;;;;;;;;;;13.10;99.90;;;;;;5092331;28;19904;-44
2022/10/17 01:37:38;;;;;;;;;;;13.10;99.90;;;;;;5092385;28;19954;-43
2022/10/17 01:40:14;;;;;;;;;;;13.10;99.90;;;;;;5082421;28;19919;-43
2022/10/17 01:43:02;;;;;;;;;;;13.10;99.90;;;;;;5078264;28;19916;-41
2022/10/17 01:45:32;;;;;;;;;;;13.10;99.90;;;;;;5066229;28;20260;-42
2022/10/17 01:47:59;;;;;;;;;;;13.10;99.90;;;;;;5062842;28;19932;-41
2022/10/17 01:50:29;;;;;;;;;;;13.10;99.90;;;;;;5062073;28;19912;-41
2022/10/17 01:52:58;;;;;;;;;;;13.10;99.90;;;;;;5075330;28;20042;-42
2022/10/17 01:55:26;;;;;;;;;;;13.00;99.90;;;;;;5051569;28;20354;-42
2022/10/17 01:57:54;;;;;;;;;;;13.00;99.90;;;;;;5051380;28;19904;-41
2022/10/17 02:00:21;;;;;;;;;;;12.90;99.90;;;;;;5070376;28;19961;-42
2022/10/17 02:02:47;;;;;;;;;;;12.90;99.90;;;;;;5086039;28;19911;-40
2022/10/17 02:05:14;;;;;;;;;;;12.90;99.90;;;;;;5083274;28;19904;-41
2022/10/17 02:07:40;;;;;;;;;;;12.90;99.90;;;;;;5064539;28;20070;-41
2022/10/17 02:10:09;;;;;;;;;;;12.80;99.90;;;;;;5074102;28;20441;-42
2022/10/17 02:12:47;;;;;;;;;;;12.90;99.90;;;;;;5084164;28;19911;-42
2022/10/17 02:15:27;;;;;;;;;;;12.80;99.90;;;;;;5084511;28;19958;-40
2022/10/17 02:17:59;;;;;;;;;;;12.80;99.90;;;;;;5087203;28;19903;-41
2022/10/17 02:20:34;;;;;;;;;;;12.70;99.90;;;;;;5075462;28;19908;-40
2022/10/17 02:23:09;;;;;;;;;;;12.70;99.90;;;;;;5082346;28;20293;-40
2022/10/17 02:25:40;;;;;;;;;;;12.70;99.90;;;;;;5090172;28;19946;-40
2022/10/17 02:28:16;;;;;;;;;;;12.70;99.90;;;;;;5078395;28;20389;-40
2022/10/17 02:30:45;;;;;;;;;;;12.60;99.90;;;;;;5091327;28;19940;-41
2022/10/17 02:33:13;;;;;;;;;;;12.60;99.90;;;;;;5090607;28;20250;-40
2022/10/17 02:35:48;;;;;;;;;;;12.60;99.90;;;;;;5091077;28;19962;-40
2022/10/17 02:38:15;;;;;;;;;;;12.50;99.90;;;;;;5089925;28;19903;-40
2022/10/17 02:40:41;;;;;;;;;;;12.50;99.90;;;;;;5084787;28;19956;-40
2022/10/17 02:43:06;;;;;;;;;;;12.50;99.90;;;;;;5082218;28;19923;-40
2022/10/17 02:45:34;;;;;;;;;;;12.40;99.90;;;;;;5088466;28;20590;-40
2022/10/17 02:48:15;;;;;;;;;;;12.40;99.90;;;;;;5082197;28;20003;-40
2022/10/17 02:50:59;;;;;;;;;;;12.40;99.90;;;;;;5077948;28;19982;-40
2022/10/17 02:53:29;;;;;;;;;;;12.40;99.90;;;;;;5070284;28;19905;-43
2022/10/17 02:55:56;;;;;;;;;;;12.40;99.90;;;;;;5070205;28;19911;-45
2022/10/17 02:58:30;;;;;;;;;;;12.40;99.90;;;;;;5069079;28;19904;-45
2022/10/17 03:00:55;;;;;;;;;;;12.40;99.90;;;;;;5070724;28;19908;-42
2022/10/17 03:03:25;;;;;;;;;;;12.40;99.90;;;;;;5081481;28;20379;-42
2022/10/17 03:05:51;;;;;;;;;;;12.40;99.90;;;;;;5074726;28;20037;-43
2022/10/17 03:08:17;;;;;;;;;;;12.40;99.90;;;;;;5080612;28;20033;-45
2022/10/17 03:10:42;;;;;;;;;;;12.40;99.90;;;;;;5077532;28;19945;-41
2022/10/17 03:13:08;;;;;;;;;;;12.40;99.90;;;;;;5081171;28;19912;-45
2022/10/17 03:15:33;;;;;;;;;;;12.40;99.90;;;;;;5079631;28;19943;-42
2022/10/17 03:17:59;;;;;;;;;;;12.40;99.90;;;;;;5081894;28;20524;-44
2022/10/17 03:20:24;;;;;;;;;;;12.40;99.90;;;;;;5080379;28;19972;-40
2022/10/17 03:22:50;;;;;;;;;;;12.30;99.90;;;;;;5081328;28;19908;-41
2022/10/17 03:25:15;;;;;;;;;;;12.30;99.90;;;;;;5081327;28;19919;-42
2022/10/17 03:27:41;;;;;;;;;;;12.30;99.90;;;;;;5081602;28;19904;-41
2022/10/17 03:30:06;;;;;;;;;;;12.30;99.90;;;;;;5081392;28;19935;-41
2022/10/17 03:32:32;;;;;;;;;;;12.30;99.90;;;;;;5080568;28;20353;-40
2022/10/17 03:34:58;;;;;;;;;;;12.30;99.90;;;;;;5084613;28;21228;-42
2022/10/17 03:37:23;;;;;;;;;;;12.30;99.90;;;;;;5081700;28;19991;-41
2022/10/17 03:39:49;;;;;;;;;;;12.30;99.90;;;;;;5086942;28;19910;-42
2022/10/17 03:42:14;;;;;;;;;;;12.30;99.90;;;;;;5077908;28;19904;-41
2022/10/17 03:44:40;;;;;;;;;;;12.30;99.90;;;;;;5090538;28;19908;-39
2022/10/17 03:47:05;;;;;;;;;;;12.30;99.90;;;;;;5077320;28;20058;-42
2022/10/17 03:49:30;;;;;;;;;;;12.30;99.90;;;;;;5089979;28;20431;-42
2022/10/17 03:51:56;;;;;;;;;;;12.30;99.90;;;;;;5076448;28;20007;-42
2022/10/17 03:54:21;;;;;;;;;;;12.30;99.90;;;;;;5081456;28;19904;-44
2022/10/17 03:56:47;;;;;;;;;;;12.30;99.90;;;;;;5090126;28;20277;-42
2022/10/17 03:59:13;;;;;;;;;;;12.30;99.90;;;;;;5085199;28;20008;-41
2022/10/17 04:01:38;;;;;;;;;;;12.30;99.90;;;;;;5081381;28;19912;-41
2022/10/17 04:04:04;;;;;;;;;;;12.20;99.90;;;;;;5089926;28;19965;-40
2022/10/17 04:06:29;;;;;;;;;;;12.20;99.90;;;;;;5089919;28;19908;-41
2022/10/17 04:08:55;;;;;;;;;;;12.10;99.90;;;;;;5089682;28;19904;-40
2022/10/17 04:11:20;;;;;;;;;;;12.20;99.90;;;;;;5089318;28;20032;-41
2022/10/17 04:13:45;;;;;;;;;;;12.20;99.90;;;;;;5089573;28;19912;-41
2022/10/17 04:16:12;;;;;;;;;;;12.20;99.90;;;;;;5089636;28;19904;-40
2022/10/17 04:18:38;;;;;;;;;;;12.20;99.90;;;;;;5089556;28;19907;-40
2022/10/17 04:21:04;;;;;;;;;;;12.10;99.90;;;;;;5089741;28;19904;-42
2022/10/17 04:23:30;;;;;;;;;;;12.10;99.90;;;;;;5088864;28;19957;-40
2022/10/17 04:25:56;;;;;;;;;;;12.10;99.90;;;;;;5090020;28;19908;-42
2022/10/17 04:28:21;;;;;;;;;;;12.00;99.90;;;;;;5089591;28;19995;-40
2022/10/17 04:30:47;;;;;;;;;;;12.00;99.90;;;;;;5078938;28;19995;-41
2022/10/17 04:33:12;;;;;;;;;;;12.00;99.90;;;;;;5084527;28;19911;-40
2022/10/17 04:35:38;;;;;;;;;;;11.90;99.90;;;;;;5060258;28;19913;-40
2022/10/17 04:38:03;;;;;;;;;;;11.90;99.90;;;;;;5059166;28;19932;-43
2022/10/17 04:40:28;;;;;;;;;;;11.90;99.90;;;;;;5057397;28;20017;-43
2022/10/17 04:42:54;;;;;;;;;;;11.90;99.90;;;;;;5058511;28;19909;-41
2022/10/17 04:45:19;;;;;;;;;;;11.90;99.90;;;;;;5066156;28;19904;-41
2022/10/17 04:47:45;;;;;;;;;;;11.80;99.90;;;;;;5062929;28;20347;-41
2022/10/17 04:50:10;;;;;;;;;;;11.80;99.90;;;;;;5065737;28;20387;-42
2022/10/17 04:52:38;;;;;;;;;;;11.80;99.90;;;;;;5065073;28;20424;-41
2022/10/17 04:55:07;;;;;;;;;;;11.70;99.90;;;;;;5062638;28;20381;-41
2022/10/17 04:57:35;;;;;;;;;;;11.70;99.90;;;;;;5063016;28;19931;-40
2022/10/17 05:00:01;;;;;;;;;;;11.70;99.90;;;;;;5064795;28;20323;-41
2022/10/17 05:02:26;;;;;;;;;;;11.70;99.90;;;;;;5061388;28;19923;-42
2022/10/17 05:04:52;;;;;;;;;;;11.60;99.90;;;;;;5058771;28;19973;-42
2022/10/17 05:07:17;;;;;;;;;;;11.70;99.90;;;;;;5062607;28;19905;-41
2022/10/17 05:09:43;;;;;;;;;;;11.60;99.90;;;;;;5062590;28;20365;-41
2022/10/17 05:12:08;;;;;;;;;;;11.60;99.90;;;;;;5061657;28;20024;-41
2022/10/17 05:14:33;;;;;;;;;;;11.60;99.90;;;;;;5060776;28;19911;-41
2022/10/17 05:16:59;;;;;;;;;;;11.60;99.90;;;;;;5063139;28;19917;-42
2022/10/17 05:19:24;;;;;;;;;;;11.60;99.90;;;;;;5072503;28;19950;-42
2022/10/17 05:21:50;;;;;;;;;;;11.60;99.90;;;;;;5087664;28;19912;-43
2022/10/17 05:24:15;;;;;;;;;;;11.60;99.90;;;;;;5084312;28;20606;-42
2022/10/17 05:26:41;;;;;;;;;;;11.50;99.90;;;;;;5082729;28;19904;-42
2022/10/17 05:29:06;;;;;;;;;;;11.50;99.90;;;;;;5092447;28;20281;-42
2022/10/17 05:31:32;;;;;;;;;;;11.50;99.90;;;;;;5091771;28;19907;-41
2022/10/17 05:34:03;;;;;;;;;;;11.50;99.90;;;;;;5074240;28;19904;-41
2022/10/17 05:36:28;;;;;;;;;;;11.50;99.90;;;;;;5085146;28;19904;-43
2022/10/17 05:38:54;;;;;;;;;;;11.50;99.90;;;;;;5092099;28;20281;-42
2022/10/17 05:41:19;;;;;;;;;;;11.50;99.90;;;;;;5068999;28;19908;-42
2022/10/17 05:43:45;;;;;;;;;;;11.50;99.90;;;;;;5069570;28;19957;-43
2022/10/17 05:46:11;;;;;;;;;;;11.50;99.90;;;;;;5088909;28;20351;-40
2022/10/17 05:48:36;;;;;;;;;;;11.50;99.90;;;;;;5073588;28;19931;-41
2022/10/17 05:51:06;;;;;;;;;;;11.50;99.90;;;;;;5088741;28;20355;-41
2022/10/17 05:53:32;;;;;;;;;;;11.50;99.90;;;;;;5091206;28;19947;-41
2022/10/17 05:55:59;;;;;;;;;;;11.50;99.90;;;;;;5076377;28;19993;-42
2022/10/17 05:58:24;;;;;;;;;;;11.40;99.90;;;;;;5080605;28;19947;-40
2022/10/17 06:00:49;;;;;;;;;;;11.40;99.90;;;;;;5059893;28;20001;-44
2022/10/17 06:03:15;;;;;;;;;;;11.50;99.90;;;;;;5070581;28;19921;-41
2022/10/17 06:05:40;;;;;;;;;;;11.40;99.90;;;;;;5082540;28;19916;-42
2022/10/17 06:08:06;;;;;;;;;;;11.50;99.90;;;;;;5078819;28;20350;-42
2022/10/17 06:10:31;;;;;;;;;;;11.50;99.90;;;;;;5090457;28;20265;-41
2022/10/17 06:12:57;;;;;;;;;;;11.40;99.90;;;;;;5075110;28;20279;-42
2022/10/17 06:15:22;;;;;;;;;;;11.50;99.90;;;;;;5072514;28;20313;-42
2022/10/17 06:17:47;;;;;;;;;;;11.50;99.90;;;;;;5070981;28;20003;-42
2022/10/17 06:20:13;;;;;;;;;;;11.50;99.90;;;;;;5074926;28;19914;-43
2022/10/17 06:22:38;;;;;;;;;;;11.50;99.90;;;;;;5084804;28;20369;-42
2022/10/17 06:25:04;;;;;;;;;;;11.50;99.90;;;;;;5091079;28;19903;-40
2022/10/17 06:27:29;;;;;;;;;;;11.60;99.90;;;;;;5060979;28;19960;-39
2022/10/17 06:29:55;;;;;;;;;;;11.50;99.90;;;;;;5066806;28;19998;-41
2022/10/17 06:32:20;;;;;;;;;;;11.70;99.90;;;;;;5072079;28;20161;-42
2022/10/17 06:34:46;;;;;;;;;;;11.80;99.90;;;;;;5074556;28;19904;-40
2022/10/17 06:37:11;;;;;;;;;;;12.00;99.90;;;;;;5072067;28;19947;-42
2022/10/17 06:39:37;;;;;;;;;;;12.20;99.90;;;;;;5077801;28;19959;-43
2022/10/17 06:42:03;;;;;;;;;;;12.30;99.90;;;;;;5081788;28;20003;-41
2022/10/17 06:44:30;;;;;;;;;;;12.80;99.90;;;;;;5082798;28;19900;-43
2022/10/17 06:46:56;;;;;;;;;;;13.20;99.90;;;;;;5072120;28;19908;-41
2022/10/17 06:49:22;;;;;;;;;;;13.60;99.90;;;;;;5069609;28;20326;-41
2022/10/17 06:51:47;;;;;;;;;;;13.80;99.90;;;;;;5063294;28;19904;-40
2022/10/17 06:54:13;;;;;;;;;;;14.00;99.90;;;;;;5079184;28;20369;-41
2022/10/17 06:56:38;;;;;;;;;;;14.20;99.90;;;;;;5085665;28;20272;-41
2022/10/17 06:59:04;;;;;;;;;;;14.30;99.90;;;;;;5075994;28;20266;-40
2022/10/17 07:01:30;;;;;;;;;;;14.40;99.90;;;;;;5088915;28;20272;-42
2022/10/17 07:03:55;;;;;;;;;;;14.50;99.90;;;;;;5076333;28;19904;-43
2022/10/17 07:06:23;;;;;;;;;;;14.60;99.90;;;;;;5080802;28;19904;-41
2022/10/17 07:08:49;;;;;;;;;;;14.60;99.90;;;;;;5075822;28;19905;-41
2022/10/17 07:11:15;;;;;;;;;;;14.80;99.90;;;;;;5078696;28;19915;-41
2022/10/17 07:13:41;;;;;;;;;;;14.90;99.90;;;;;;5082258;28;20212;-40
2022/10/17 07:16:07;;;;;;;;;;;15.10;99.90;;;;;;5076550;28;19904;-44
2022/10/17 07:18:33;;;;;;;;;;;15.30;99.90;;;;;;5089923;28;19911;-41
2022/10/17 07:20:58;;;;;;;;;;;15.50;99.90;;;;;;5072277;28;19912;-40
2022/10/17 07:23:24;;;;;;;;;;;15.60;99.90;;;;;;5081494;28;20429;-41
2022/10/17 07:25:49;;;;;;;;;;;15.70;99.90;;;;;;5081039;28;20146;-42
2022/10/17 07:28:14;;;;;;;;;;;15.90;99.90;;;;;;5081880;28;20599;-41
2022/10/17 07:30:40;;;;;;;;;;;16.00;99.90;;;;;;5088526;28;19908;-41
2022/10/17 07:33:05;;;;;;;;;;;16.30;99.90;;;;;;5079753;28;19904;-43
2022/10/17 07:35:31;;;;;;;;;;;16.40;99.90;;;;;;5084542;28;19904;-42
2022/10/17 07:37:56;;;;;;;;;;;16.50;99.90;;;;;;5074744;28;20388;-42
2022/10/17 07:40:22;;;;;;;;;;;16.70;99.90;;;;;;5089865;28;19912;-42
2022/10/17 07:42:47;;;;;;;;;;;16.80;99.90;;;;;;5076598;28;19911;-42
2022/10/17 07:45:14;;;;;;;;;;;16.90;99.90;;;;;;5080458;28;20242;-41
2022/10/17 07:47:39;;;;;;;;;;;17.10;99.90;;;;;;5083214;28;19912;-42
2022/10/17 07:50:05;;;;;;;;;;;17.20;99.90;;;;;;5061772;28;20285;-42
2022/10/17 07:52:30;;;;;;;;;;;17.30;99.90;;;;;;5051718;28;20007;-42
2022/10/17 07:54:56;;;;;;;;;;;17.40;99.90;;;;;;5069809;28;20023;-42
2022/10/17 07:57:21;;;;;;;;;;;17.40;99.90;;;;;;5089338;28;20085;-43
2022/10/17 07:59:47;;;;;;;;;;;17.40;99.90;;;;;;5078328;28;19941;-42
2022/10/17 08:02:17;;;;;;;;;;;17.50;99.90;;;;;;5055618;28;19908;-42
2022/10/17 08:04:43;;;;;;;;;;;17.50;99.90;;;;;;5059103;28;19904;-42
2022/10/17 08:07:08;;;;;;;;;;;17.60;99.90;;;;;;5056556;28;20026;-43
2022/10/17 08:09:33;;;;;;;;;;;17.60;99.90;;;;;;5049041;28;19912;-42
2022/10/17 08:11:59;;;;;;;;;;;17.70;99.90;;;;;;5048905;28;19909;-43
2022/10/17 08:14:24;;;;;;;;;;;17.80;99.90;;;;;;5049129;28;19951;-43
2022/10/17 08:16:50;;;;;;;;;;;17.90;99.90;;;;;;5049242;28;19951;-41
2022/10/17 08:19:15;;;;;;;;;;;18.00;99.90;;;;;;5050068;28;20279;-41
2022/10/17 08:21:42;;;;;;;;;;;18.10;99.90;;;;;;5064325;28;19904;-42
2022/10/17 08:24:07;;;;;;;;;;;18.30;99.90;;;;;;5083399;28;20407;-41
2022/10/17 08:26:33;;;;;;;;;;;18.50;99.90;;;;;;5093419;28;19947;-41
2022/10/17 08:28:58;;;;;;;;;;;18.60;99.90;;;;;;5093387;28;19950;-42
2022/10/17 08:31:24;;;;;;;;;;;18.70;99.90;;;;;;5092858;28;20305;-42
2022/10/17 08:33:49;;;;;;;;;;;18.90;99.90;;;;;;5092846;28;19904;-41
2022/10/17 08:36:16;;;;;;;;;;;19.00;99.90;;;;;;5093004;28;20392;-42
2022/10/17 08:38:42;;;;;;;;;;;19.10;99.90;;;;;;5091642;28;19976;-41
2022/10/17 08:41:13;;;;;;;;;;;19.20;99.90;;;;;;5082539;28;19951;-42
2022/10/17 08:43:50;;;;;;;;;;;19.30;99.90;;;;;;5083830;28;20364;-41
2022/10/17 08:46:15;;;;;;;;;;;19.40;99.90;;;;;;5081286;28;20210;-41
2022/10/17 08:48:43;;;;;;;;;;;19.60;99.90;;;;;;5064293;28;20356;-42
2022/10/17 08:51:12;;;;;;;;;;;19.70;99.90;;;;;;5069674;28;19915;-42
2022/10/17 08:53:37;;;;;;;;;;;19.70;99.90;;;;;;5051387;28;20053;-43
2022/10/17 08:56:12;;;;;;;;;;;19.80;99.90;;;;;;5053612;28;20005;-43
2022/10/17 08:58:38;;;;;;;;;;;20.00;99.90;;;;;;5083966;28;19947;-44
2022/10/17 09:01:03;;;;;;;;;;;20.60;99.90;;;;;;5090020;28;20340;-42
2022/10/17 09:03:47;;;;;;;;;;;20.70;99.90;;;;;;5077667;28;19995;-43
2022/10/17 09:06:28;;;;;;;;;;;21.00;99.90;;;;;;5089043;28;19995;-43
2022/10/17 09:09:14;;;;;;;;;;;21.50;99.90;;;;;;5090306;28;20085;-42
2022/10/17 09:11:51;;;;;;;;;;;21.80;99.90;;;;;;5089638;28;19914;-45
2022/10/17 09:14:23;;;;;;;;;;;22.50;99.90;;;;;;5090613;28;19935;-44
2022/10/17 09:16:59;;;;;;;;;;;23.10;99.90;;;;;;5090566;28;19915;-44
2022/10/17 09:19:28;;;;;;;;;;;23.20;99.90;;;;;;5090191;28;19911;-42
2022/10/17 09:21:53;;;;;;;;;;;23.40;99.90;;;;;;5090556;28;19904;-43
2022/10/17 09:24:24;;;;;;;;;;;23.80;99.90;;;;;;5088913;28;19954;-43
2022/10/17 09:26:49;;;;;;;;;;;24.10;99.90;;;;;;5089924;28;19910;-43
2022/10/17 09:29:22;;;;;;;;;;;23.90;99.90;;;;;;5090498;28;19904;-42
2022/10/17 09:31:52;;;;;;;;;;;24.10;99.90;;;;;;5085691;28;19904;-41
2022/10/17 09:34:17;;;;;;;;;;;24.20;99.80;;;;;;5080548;28;20002;-45
2022/10/17 09:36:43;;;;;;;;;;;23.90;99.70;;;;;;5084986;28;19996;-45
2022/10/17 09:39:21;;;;;;;;;;;24.10;99.30;;;;;;5089886;28;20321;-42
2022/10/17 09:41:52;;;;;;;;;;;24.20;99.50;;;;;;5070866;28;19970;-42
2022/10/17 09:44:22;;;;;;;;;;;24.00;99.00;;;;;;5062474;28;19904;-42
2022/10/17 09:46:59;;;;;;;;;;;24.20;99.00;;;;;;5064665;28;19911;-43
2022/10/17 09:49:30;;;;;;;;;;;24.10;98.70;;;;;;5060086;28;19905;-44
2022/10/17 09:51:56;;;;;;;;;;;24.00;99.30;;;;;;5060380;28;20354;-44
2022/10/17 09:54:27;;;;;;;;;;;24.10;99.30;;;;;;5062039;28;20041;-43
2022/10/17 09:57:00;;;;;;;;;;;24.30;98.50;;;;;;5059683;28;19909;-42
2022/10/17 09:59:30;;;;;;;;;;;24.10;98.80;;;;;;5051680;28;20026;-42
2022/10/17 10:02:05;;;;;;;;;;;24.00;99.00;;;;;;5050962;28;19905;-43
2022/10/17 10:04:31;;;;;;;;;;;24.00;98.80;;;;;;5072552;28;19909;-43
2022/10/17 10:07:01;;;;;;;;;;;23.90;98.90;;;;;;5071473;28;19904;-47
2022/10/17 10:09:28;;;;;;;;;;;24.40;98.30;;;;;;5071367;28;20342;-44
2022/10/17 10:11:55;;;;;;;;;;;24.10;98.20;;;;;;5070870;28;19908;-42
2022/10/17 10:14:20;;;;;;;;;;;24.20;98.90;;;;;;5070950;28;19908;-41
2022/10/17 10:16:46;;;;;;;;;;;24.00;98.70;;;;;;5071070;28;20376;-42
2022/10/17 10:19:27;;;;;;;;;;;23.60;99.30;;;;;;5071348;28;20254;-41
2022/10/17 10:21:56;;;;;;;;;;;23.60;99.40;;;;;;5070690;28;20323;-41
2022/10/17 10:24:23;;;;;;;;;;;24.10;99.30;;;;;;5071028;28;19912;-44
2022/10/17 10:26:49;;;;;;;;;;;24.90;98.10;;;;;;5070773;28;19912;-45
2022/10/17 10:29:23;;;;;;;;;;;25.90;97.10;;;;;;5070961;28;19926;-44
2022/10/17 10:31:50;;;;;;;;;;;26.10;95.80;;;;;;5069077;28;20011;-47
2022/10/17 10:34:15;;;;;;;;;;;26.80;95.10;;;;;;5081557;28;19957;-46
2022/10/17 10:36:45;;;;;;;;;;;27.60;93.40;;;;;;5091243;28;20314;-44
2022/10/17 10:39:24;;;;;;;;;;;28.10;92.90;;;;;;5091150;28;19923;-44
2022/10/17 10:41:50;;;;;;;;;;;29.10;91.40;;;;;;5090573;28;19904;-45
2022/10/17 10:44:23;;;;;;;;;;;29.40;90.10;;;;;;5086915;28;19911;-44
2022/10/17 10:47:04;;;;;;;;;;;30.00;88.00;;;;;;5074690;28;19926;-42
2022/10/17 10:49:30;;;;;;;;;;;29.70;85.50;;;;;;5050628;28;19923;-45
2022/10/17 10:51:57;;;;;;;;;;;28.60;85.80;;;;;;5067135;28;20000;-42
2022/10/17 10:54:25;;;;;;;;;;;27.50;89.00;;;;;;5057709;28;19923;-43
2022/10/17 10:56:52;;;;;;;;;;;26.10;91.60;;;;;;5071046;28;20146;-41
2022/10/17 10:59:37;;;;;;;;;;;25.70;92.30;;;;;;5072096;28;19912;-44
2022/10/17 11:02:08;;;;;;;;;;;26.00;92.50;;;;;;5060287;28;19998;-41
2022/10/17 11:04:42;;;;;;;;;;;26.50;92.40;;;;;;5061392;28;19908;-42
2022/10/17 11:07:21;;;;;;;;;;;27.40;91.30;;;;;;5058806;28;19932;-46
2022/10/17 11:09:57;;;;;;;;;;;27.30;91.70;;;;;;5074520;28;19999;-47
2022/10/17 11:12:40;;;;;;;;;;;26.90;90.90;;;;;;5049255;28;19913;-42
2022/10/17 11:15:18;;;;;;;;;;;27.20;91.30;;;;;;5066538;28;20362;-44
2022/10/17 11:17:59;;;;;;;;;;;27.90;90.00;;;;;;5059314;28;20438;-44
2022/10/17 11:20:44;;;;;;;;;;;28.20;89.60;;;;;;5067477;28;19952;-42
2022/10/17 11:23:09;;;;;;;;;;;27.40;90.00;;;;;;5056481;28;19952;-45
2022/10/17 11:25:36;;;;;;;;;;;26.60;90.70;;;;;;5068346;28;20353;-43
2022/10/17 11:28:02;;;;;;;;;;;26.20;91.80;;;;;;5062860;28;19908;-44
2022/10/17 11:30:30;;;;;;;;;;;25.60;91.90;;;;;;5058780;28;19912;-44
2022/10/17 11:32:58;;;;;;;;;;;25.50;92.10;;;;;;5067203;28;19918;-42
2022/10/17 11:35:25;;;;;;;;;;;25.20;92.00;;;;;;5059540;28;20471;-41
2022/10/17 11:38:09;;;;;;;;;;;24.90;92.70;;;;;;5060692;28;19916;-43
2022/10/17 11:40:37;;;;;;;;;;;24.70;93.20;;;;;;5059437;28;19991;-41
2022/10/17 11:43:10;;;;;;;;;;;24.80;92.80;;;;;;5060612;28;19950;-42
2022/10/17 11:45:42;;;;;;;;;;;24.40;93.30;;;;;;5063202;28;19999;-43
2022/10/17 11:48:20;;;;;;;;;;;24.30;93.40;;;;;;5061785;28;19942;-42
2022/10/17 11:50:48;;;;;;;;;;;24.10;93.70;;;;;;5061379;28;19911;-41
2022/10/17 11:53:16;;;;;;;;;;;24.00;94.00;;;;;;5054892;28;19905;-42
2022/10/17 11:55:42;;;;;;;;;;;24.10;94.20;;;;;;5063100;28;19913;-43
2022/10/17 11:58:13;;;;;;;;;;;24.00;94.10;;;;;;5061940;28;19954;-42
2022/10/17 12:01:05;;;;;;;;;;;24.00;94.50;;;;;;5061513;28;19916;-42
2022/10/17 12:03:37;;;;;;;;;;;24.10;94.40;;;;;;5075757;28;19954;-42
2022/10/17 12:06:10;;;;;;;;;;;24.10;94.00;;;;;;5073989;28;19911;-45
2022/10/17 12:08:43;;;;;;;;;;;24.10;94.10;;;;;;5075118;28;19904;-43
2022/10/17 12:11:12;;;;;;;;;;;24.20;93.50;;;;;;5075091;28;19911;-47
2022/10/17 12:13:46;;;;;;;;;;;24.10;93.40;;;;;;5074667;28;19912;-42
2022/10/17 12:16:17;;;;;;;;;;;24.00;94.10;;;;;;5075050;28;20350;-41
2022/10/17 12:18:42;;;;;;;;;;;24.00;94.00;;;;;;5074420;28;19905;-42
2022/10/17 12:21:08;;;;;;;;;;;24.00;93.70;;;;;;5074461;28;19908;-41
2022/10/17 12:23:35;;;;;;;;;;;24.00;93.60;;;;;;5074009;28;19911;-45
2022/10/17 12:26:02;;;;;;;;;;;23.80;93.70;;;;;;5074450;28;19939;-43
2022/10/17 12:28:31;;;;;;;;;;;23.70;93.80;;;;;;5074487;28;19908;-42
2022/10/17 12:30:58;;;;;;;;;;;23.70;94.20;;;;;;5070648;28;19905;-42
2022/10/17 12:33:26;;;;;;;;;;;23.80;94.00;;;;;;5085537;28;19904;-42
2022/10/17 12:36:10;;;;;;;;;;;23.80;93.70;;;;;;5094860;28;19913;-42
2022/10/17 12:38:35;;;;;;;;;;;23.80;94.20;;;;;;5094759;28;20346;-45
2022/10/17 12:41:02;;;;;;;;;;;24.00;93.30;;;;;;5094693;28;19908;-44
2022/10/17 12:43:27;;;;;;;;;;;24.70;93.00;;;;;;5094356;28;20325;-42
2022/10/17 12:45:56;;;;;;;;;;;25.00;92.50;;;;;;5094501;28;19998;-45
2022/10/17 12:48:37;;;;;;;;;;;25.40;91.60;;;;;;5094488;28;20321;-45
2022/10/17 12:51:02;;;;;;;;;;;25.60;91.30;;;;;;5094369;28;20333;-43
2022/10/17 12:53:35;;;;;;;;;;;25.90;91.80;;;;;;5092291;28;19911;-43
2022/10/17 12:56:01;;;;;;;;;;;26.10;91.90;;;;;;5094318;28;19912;-44
2022/10/17 12:58:27;;;;;;;;;;;26.30;90.50;;;;;;5093923;28;19907;-45
2022/10/17 13:00:54;;;;;;;;;;;26.30;90.20;;;;;;5088106;28;19916;-43
2022/10/17 13:03:22;;;;;;;;;;;26.10;90.10;;;;;;5085061;28;19904;-46
2022/10/17 13:05:50;;;;;;;;;;;25.70;90.50;;;;;;5093205;28;19903;-43
2022/10/17 13:08:20;;;;;;;;;;;25.60;91.30;;;;;;5094119;28;19904;-43
2022/10/17 13:10:47;;;;;;;;;;;25.20;91.30;;;;;;5094245;28;20559;-44
2022/10/17 13:13:17;;;;;;;;;;;25.10;91.50;;;;;;5093367;28;20069;-43
2022/10/17 13:15:50;;;;;;;;;;;25.10;91.20;;;;;;5093997;28;20009;-43
2022/10/17 13:18:20;;;;;;;;;;;25.10;91.60;;;;;;5093962;28;19908;-43
2022/10/17 13:20:55;;;;;;;;;;;25.20;91.80;;;;;;5093885;28;19914;-43
2022/10/17 13:23:24;;;;;;;;;;;25.30;91.40;;;;;;5093486;28;19966;-41
2022/10/17 13:26:02;;;;;;;;;;;25.20;91.50;;;;;;5093767;28;20303;-46
2022/10/17 13:28:27;;;;;;;;;;;24.80;91.40;;;;;;5093722;28;19904;-49
2022/10/17 13:30:53;;;;;;;;;;;24.90;91.40;;;;;;5086999;28;19924;-42
2022/10/17 13:33:28;;;;;;;;;;;24.70;91.80;;;;;;5083382;28;19936;-42
2022/10/17 13:35:53;;;;;;;;;;;24.60;92.00;;;;;;5079678;28;19940;-41
2022/10/17 13:38:20;;;;;;;;;;;24.60;92.10;;;;;;5064239;28;19946;-41
2022/10/17 13:40:45;;;;;;;;;;;24.40;92.00;;;;;;5072589;28;19920;-45
2022/10/17 13:43:23;;;;;;;;;;;24.40;92.50;;;;;;5071530;28;20560;-45
2022/10/17 13:45:50;;;;;;;;;;;24.30;92.50;;;;;;5065194;28;20365;-44
2022/10/17 13:48:20;;;;;;;;;;;24.20;92.60;;;;;;5062457;28;19908;-42
2022/10/17 13:50:49;;;;;;;;;;;24.20;92.90;;;;;;5062056;28;20347;-43
2022/10/17 13:53:19;;;;;;;;;;;24.20;93.30;;;;;;5060498;28;19912;-43
2022/10/17 13:55:51;;;;;;;;;;;24.10;92.80;;;;;;5062388;28;19951;-43
2022/10/17 13:58:17;;;;;;;;;;;24.00;93.10;;;;;;5057827;28;19920;-43
2022/10/17 14:00:43;;;;;;;;;;;24.00;92.80;;;;;;5064873;28;19989;-43
2022/10/17 14:03:09;;;;;;;;;;;23.90;93.30;;;;;;5058848;28;19912;-42
2022/10/17 14:05:34;;;;;;;;;;;23.90;93.40;;;;;;5056938;28;19912;-42
2022/10/17 14:08:01;;;;;;;;;;;23.70;93.30;;;;;;5060576;28;19908;-42
2022/10/17 14:10:31;;;;;;;;;;;23.60;93.50;;;;;;5057794;28;19904;-45
2022/10/17 14:12:57;;;;;;;;;;;23.60;93.90;;;;;;5061838;28;20338;-43
2022/10/17 14:15:25;;;;;;;;;;;23.40;94.00;;;;;;5065074;28;20547;-43
2022/10/17 14:18:04;;;;;;;;;;;23.40;94.00;;;;;;5063058;28;19912;-42
2022/10/17 14:20:30;;;;;;;;;;;23.30;94.40;;;;;;5062581;28;19917;-42
2022/10/17 14:22:56;;;;;;;;;;;23.30;94.50;;;;;;5059445;28;19920;-42